aviador You're here:

KARR Decoded Metar

CHICAGO/AURORA in IL, USA
Report Time2018-07-23 14:52:00
UTC Time2018-07-23 15:41:57
Flight Rules vfr VFR
Wind330° at 10 Gusting to 16 kt
W.Decomp.*RWY 33: 10.0 kt HW 0.2 kt RCW
RWY 36: 8.7 kt HW 4.8 kt LCW
RWY 27: 4.8 kt HW 8.7 kt RCW
W.Rank330° ranks 22
Current wind is above 330° avg. (9.0)
Visibility9999 m
Phenomena:N/A
Clouds:N/A
Expected CloudBase > 2,800 ft AGL from Temp-Dew spread
CeilingNone
Temp24°C (ISA +10)
Dew Point17°C (65% RH)
AAT22.8°C
QNH1014 hPa
Density Alt2,136 ft
Elevation705 ft
Report Wrong Elevation
Raw Report
KARR 231452Z 33010G16KT 9SM CLR 24/17 A2995 RMK AO2 SLP138
T02440172 50002=

Extra information for KARR:More info

Metar Taf Metar & Taf Last 4 Metars F.Rules Stats Wind Profile Meteogram Temp Stats Airport Information Weather charts Add Link Nearby VenuesMetar ALERT Operation Metar Decoded Social comments

AIRNAV info for KARR